Terminal Aerodrome Forecast
Issued by NWS Wakefield, VA

Home | Current Version | Previous Version | Text Only | Print | Product List | Glossary On
Versions: 1 2 3 4 5 6 7 8 9 10 11 12 13 14 15 16 17 18 19 20 21 22 23 24 25 26 27 28 29 30 31 32 33 34 35 36 37 38 39 40
000
FTUS41 KAKQ 131145 CCA
TAFORF
TAF COR
KORF 131145Z 1312/1412 07007KT P6SM SCT008 BKN050
     FM131800 05007KT P6SM VCSH OVC025
     FM132100 03005KT 4SM -RA BR OVC007
     FM140500 13007KT 4SM RA BR OVC005=

USA.gov is the U.S. government's official web portal to all federal, state and local government web resources and services.